createdAt,value
2022-12-28T00:11:31.327Z,90.6
2022-12-28T00:26:41.013Z,90.2
2022-12-28T00:41:50.325Z,90.2
2022-12-28T00:56:59.730Z,90.3
2022-12-28T01:12:08.804Z,90.2
2022-12-28T01:27:59.990Z,89
2022-12-28T01:43:10.322Z,90
2022-12-28T01:58:19.390Z,89.9
2022-12-28T02:13:28.931Z,89.9
2022-12-28T02:28:38.439Z,89.8
2022-12-28T02:43:48.123Z,89.6
2022-12-28T02:58:57.893Z,89.5
2022-12-28T03:14:07.547Z,89.4
2022-12-28T03:29:16.964Z,89.5
2022-12-28T03:44:26.700Z,89.5
2022-12-28T03:59:36.290Z,89.8
2022-12-28T04:14:45.880Z,89.9
2022-12-28T04:29:55.221Z,89.9
2022-12-28T04:45:04.627Z,90
2022-12-28T05:00:13.817Z,89.8
2022-12-28T05:15:23.991Z,89.8
2022-12-28T05:30:33.716Z,89.7
2022-12-28T05:45:43.736Z,89.8
2022-12-28T06:00:53.568Z,89.9
2022-12-28T06:16:03.734Z,90
2022-12-28T06:31:13.620Z,90.2
2022-12-28T06:46:23.582Z,90.5
2022-12-28T07:01:33.584Z,90.6
2022-12-28T07:16:42.905Z,90.8
2022-12-28T07:31:52.692Z,91.2
2022-12-28T07:47:02.327Z,91.1
2022-12-28T08:02:12.626Z,91.1
2022-12-28T08:17:22.511Z,91.2
2022-12-28T08:32:50.881Z,90.3
2022-12-28T08:48:01.167Z,91.1
2022-12-28T09:03:11.674Z,91.1
2022-12-28T09:18:21.324Z,91
2022-12-28T09:33:31.996Z,90.9
2022-12-28T09:48:41.060Z,90.8
2022-12-28T10:03:50.761Z,90.6
2022-12-28T10:19:00.641Z,90.4
2022-12-28T10:34:10.812Z,90.4
2022-12-28T10:49:20.483Z,90.7
2022-12-28T11:04:30.198Z,90.3
2022-12-28T11:19:39.831Z,90.2
2022-12-28T11:34:49.023Z,90.3
2022-12-28T11:49:58.856Z,90.4
2022-12-28T12:05:08.369Z,90.4
2022-12-28T12:20:17.779Z,90.6
2022-12-28T12:35:27.237Z,90.8
2022-12-28T12:50:36.642Z,90.9
2022-12-28T13:05:46.270Z,91.1
2022-12-28T13:20:55.793Z,91.3
2022-12-28T13:36:10.159Z,91.3
2022-12-28T13:51:20.077Z,91.4
2022-12-28T14:06:28.822Z,91.5
2022-12-28T14:21:38.273Z,91.5
2022-12-28T14:38:01.414Z,89.4
2022-12-28T14:53:13.702Z,91.2
2022-12-28T15:08:22.955Z,91.1
2022-12-28T15:23:34.367Z,90.8
2022-12-28T15:38:43.820Z,90.9
2022-12-28T15:53:53.251Z,91
2022-12-28T16:09:06.201Z,90.8
2022-12-28T16:24:15.740Z,90.8
2022-12-28T16:39:25.495Z,90.8
2022-12-28T16:54:35.516Z,90.8
2022-12-28T17:09:50.895Z,90.7
2022-12-28T17:25:00.316Z,90.6
2022-12-28T17:40:09.854Z,90.5
2022-12-28T17:55:19.416Z,90.4
2022-12-28T18:10:29.099Z,90.2
2022-12-28T18:25:39.265Z,90
2022-12-28T18:40:49.078Z,89.8
2022-12-28T18:55:58.642Z,89.6
2022-12-28T19:11:08.391Z,89.4
2022-12-28T19:26:18.354Z,89.5
2022-12-28T19:41:27.971Z,89.4
2022-12-28T19:56:37.876Z,89.6
2022-12-28T20:11:47.088Z,89.7
2022-12-28T20:27:02.375Z,89.7
2022-12-28T20:42:11.919Z,89.9
2022-12-28T20:57:21.358Z,90.4
2022-12-28T21:12:31.190Z,89.6
2022-12-28T21:27:40.971Z,89.6
2022-12-28T21:42:50.317Z,89.7
2022-12-28T21:58:00.501Z,89.9
2022-12-28T22:13:10.059Z,90
2022-12-28T22:28:19.763Z,90
2022-12-28T22:43:29.587Z,90.6
2022-12-28T22:58:39.302Z,91
2022-12-28T23:13:49.301Z,91.4
2022-12-28T23:28:58.893Z,91.3
2022-12-28T23:44:08.845Z,91.4
2022-12-28T23:59:18.393Z,91.4
